< < Back
Terminal Aerodrome Forecast


Current Version              Previous Versions:   1  2  3  4  5  6  7  8  9  

Terminal Aerodrome Forecast

881
FTUS42 KMLB 092334
TAFDAB
TAF
KDAB 092334Z 1000/1024 25012G18KT P6SM SCT050
     FM100300 28010KT P6SM FEW050
     FM101400 29015G23KT P6SM SKC=



Latest METAR

499
SAUS80 KWBC 102200 RRA
MTRDAB
METAR KDAB 102153Z 28010KT 10SM FEW250 13/M09 A3015 RMK AO2 SLP208
T01331094 $


USA.gov is the U.S. government's official web portal to all federal, state and local government web resources and services.